Pine Hall, North Carolina
Current Conditions -  °F | °C
As of 6:35 PM on Saturday 20 Dec 2014 (Local Time) from KSIF Reporting Station
Overcast Overcast  
Wind Chill: 37°   Ceiling: 7000
Heat Index: 37°   Visibility: 10mi
Dew Point: 32°   Wind: 0mph
Humidity: 81%   Direction: NA
Pressure: 30.26"   Gusts: NA
Location:  36.32°N, 80.05°W
Report Text: KSIF 202335Z AUTO 00000KT 10SM OVC070 03/00 A3026 RMK AO2 T00300000
Loading
Personal Weather Stations






























Interactive Weather Map New forecast layout! Learn more

10-Day Weather Forecast

Advertisements
Track Severe Weather on mobile